Time;durP1;ratioP1;P1;durP2;ratioP2;P2;SDS_P1;SDS_P2;PMS_P1;PMS_P2;Temp;Humidity;BMP_temperature;BMP_pressure;BME280_temperature;BME280_humidity;BME280_pressure;Samples;Min_cycle;Max_cycle;Signal;HPM_P1;HPM_P2
2022/08/14 00:02:25;;;;;;;0.85;0.55;;;;;;;;;;4949346;28;20548;-78
2022/08/14 00:04:58;;;;;;;0.88;0.43;;;;;;;;;;4947492;28;20086;-80
2022/08/14 00:07:26;;;;;;;0.88;0.60;;;;;;;;;;4969719;28;20121;-78
2022/08/14 00:09:55;;;;;;;1.85;0.60;;;;;;;;;;4969951;28;20065;-79
2022/08/14 00:12:46;;;;;;;0.20;0.20;;;;;;;;;;4971169;28;20061;-79
2022/08/14 00:15:24;;;;;;;0.35;0.30;;;;;;;;;;4965593;28;20137;-79
2022/08/14 00:17:58;;;;;;;0.75;0.60;;;;;;;;;;4960449;28;20102;-84
2022/08/14 00:20:28;;;;;;;0.50;0.30;;;;;;;;;;4942790;28;20154;-79
2022/08/14 00:23:09;;;;;;;0.22;0.20;;;;;;;;;;4946469;28;20324;-82
2022/08/14 00:25:44;;;;;;;1.13;0.98;;;;;;;;;;4948977;28;20059;-78
2022/08/14 00:28:33;;;;;;;1.75;0.93;;;;;;;;;;4947614;28;20055;-79
2022/08/14 00:31:05;;;;;;;0.40;0.40;;;;;;;;;;4951644;28;20130;-79
2022/08/14 00:33:38;;;;;;;0.93;0.50;;;;;;;;;;4951466;28;20062;-79
2022/08/14 00:36:20;;;;;;;1.40;0.60;;;;;;;;;;4957589;28;20059;-79
2022/08/14 00:39:09;;;;;;;1.60;0.47;;;;;;;;;;4971020;28;20284;-80
2022/08/14 00:41:38;;;;;;;1.00;0.75;;;;;;;;;;4967136;28;21000;-79
2022/08/14 00:44:09;;;;;;;0.40;0.35;;;;;;;;;;4971145;28;20407;-80
2022/08/14 00:46:38;;;;;;;0.85;0.40;;;;;;;;;;4951282;28;20047;-78
2022/08/14 00:49:08;;;;;;;0.45;0.43;;;;;;;;;;4951530;28;20051;-79
2022/08/14 00:51:44;;;;;;;0.40;0.40;;;;;;;;;;4948650;28;20105;-81
2022/08/14 00:54:16;;;;;;;0.75;0.52;;;;;;;;;;4949875;28;20067;-79
2022/08/14 00:56:50;;;;;;;0.40;0.37;;;;;;;;;;4964469;28;20094;-78
2022/08/14 00:59:23;;;;;;;0.32;0.30;;;;;;;;;;4971204;28;20055;-78
2022/08/14 01:01:51;;;;;;;0.45;0.40;;;;;;;;;;4970942;28;20082;-78
2022/08/14 01:04:23;;;;;;;1.73;1.23;;;;;;;;;;4970006;28;20105;-79
2022/08/14 01:07:19;;;;;;;0.43;0.43;;;;;;;;;;4968984;28;20404;-79
2022/08/14 01:09:49;;;;;;;0.73;0.63;;;;;;;;;;4971334;28;20046;-78
2022/08/14 01:12:19;;;;;;;0.38;0.38;;;;;;;;;;4970835;28;20085;-80
2022/08/14 01:14:55;;;;;;;0.50;0.50;;;;;;;;;;4967640;28;20133;-80
2022/08/14 01:21:02;;;;;;;0.80;0.38;;;;;;;;;;4967118;28;20057;-78
2022/08/14 01:23:10;;;;;;;1.90;0.60;;;;;;;;;;4966693;28;20057;-79
2022/08/14 01:25:45;;;;;;;0.50;0.50;;;;;;;;;;4958906;28;20050;-79
2022/08/14 01:28:14;;;;;;;0.85;0.40;;;;;;;;;;4969330;28;20062;-78
2022/08/14 01:31:04;;;;;;;0.52;0.50;;;;;;;;;;4968879;28;20510;-80
2022/08/14 01:33:33;;;;;;;0.57;0.40;;;;;;;;;;4970087;28;20050;-80
2022/08/14 01:36:22;;;;;;;0.25;0.25;;;;;;;;;;4968536;28;20562;-79
2022/08/14 01:38:54;;;;;;;0.65;0.55;;;;;;;;;;4967845;28;20051;-79
2022/08/14 01:41:23;;;;;;;0.47;0.40;;;;;;;;;;4968956;28;20074;-79
2022/08/14 01:44:00;;;;;;;1.70;0.68;;;;;;;;;;4966026;28;20363;-80
2022/08/14 01:46:33;;;;;;;1.25;0.60;;;;;;;;;;4968515;28;20526;-79
2022/08/14 01:49:05;;;;;;;0.38;0.38;;;;;;;;;;4966379;28;20096;-80
2022/08/14 01:51:35;;;;;;;1.75;0.85;;;;;;;;;;4965052;28;20166;-80
2022/08/14 01:54:06;;;;;;;0.38;0.38;;;;;;;;;;4971503;28;20093;-79
2022/08/14 01:56:38;;;;;;;0.20;0.20;;;;;;;;;;4966828;28;20389;-79
2022/08/14 01:59:07;;;;;;;0.75;0.50;;;;;;;;;;4971145;28;20081;-79
2022/08/14 02:01:38;;;;;;;0.70;0.65;;;;;;;;;;4966772;28;20491;-79
2022/08/14 02:04:26;;;;;;;0.70;0.57;;;;;;;;;;4970372;28;20515;-80
2022/08/14 02:07:14;;;;;;;0.43;0.40;;;;;;;;;;4965639;28;20558;-79
2022/08/14 02:09:44;;;;;;;0.55;0.52;;;;;;;;;;4967601;28;20047;-81
2022/08/14 02:12:23;;;;;;;0.43;0.40;;;;;;;;;;4964298;28;20042;-80
2022/08/14 02:14:56;;;;;;;1.27;1.17;;;;;;;;;;4969309;28;20061;-80
2022/08/14 02:17:29;;;;;;;0.88;0.35;;;;;;;;;;4964992;28;20051;-79
2022/08/14 02:19:58;;;;;;;0.43;0.43;;;;;;;;;;4971154;28;20051;-80
2022/08/14 02:22:30;;;;;;;0.50;0.50;;;;;;;;;;4967517;28;20089;-79
2022/08/14 02:25:03;;;;;;;0.40;0.40;;;;;;;;;;4968240;28;20055;-80
2022/08/14 02:27:32;;;;;;;0.40;0.32;;;;;;;;;;4965175;28;20130;-81
2022/08/14 02:30:21;;;;;;;1.40;0.65;;;;;;;;;;4969301;28;20057;-79
2022/08/14 02:32:49;;;;;;;0.57;0.45;;;;;;;;;;4969592;28;20142;-79
2022/08/14 02:35:19;;;;;;;0.68;0.63;;;;;;;;;;4964277;28;20055;-79
2022/08/14 02:37:53;;;;;;;0.80;0.80;;;;;;;;;;4966518;28;20043;-80
2022/08/14 02:40:23;;;;;;;1.35;0.60;;;;;;;;;;4967775;28;20053;-79
2022/08/14 02:43:00;;;;;;;0.35;0.35;;;;;;;;;;4967953;28;20097;-78
2022/08/14 02:45:33;;;;;;;0.73;0.47;;;;;;;;;;4963917;28;20055;-80
2022/08/14 02:48:12;;;;;;;1.52;0.50;;;;;;;;;;4964663;28;20482;-80
2022/08/14 02:51:01;;;;;;;3.90;0.82;;;;;;;;;;4964140;28;20047;-80
2022/08/14 02:53:29;;;;;;;0.60;0.60;;;;;;;;;;4970566;28;20046;-79
2022/08/14 02:56:03;;;;;;;0.40;0.40;;;;;;;;;;4964139;28;20049;-81
2022/08/14 02:58:55;;;;;;;0.35;0.35;;;;;;;;;;4963239;28;20054;-80
2022/08/14 03:01:27;;;;;;;0.50;0.50;;;;;;;;;;4961017;28;20055;-78
2022/08/14 03:04:15;;;;;;;0.68;0.60;;;;;;;;;;4961296;28;20046;-79
2022/08/14 03:06:48;;;;;;;0.60;0.60;;;;;;;;;;4960397;28;20054;-83
2022/08/14 03:09:35;;;;;;;0.20;0.20;;;;;;;;;;4970429;28;20133;-79
2022/08/14 03:12:25;;;;;;;0.43;0.43;;;;;;;;;;4969276;28;20050;-79
2022/08/14 03:15:02;;;;;;;0.98;0.88;;;;;;;;;;4965071;28;20062;-80
2022/08/14 03:17:34;;;;;;;0.63;0.63;;;;;;;;;;4967848;28;20046;-78
2022/08/14 03:20:22;;;;;;;1.30;0.77;;;;;;;;;;4964869;28;20384;-79
2022/08/14 03:22:51;;;;;;;1.52;0.88;;;;;;;;;;4960135;28;20110;-79
2022/08/14 03:25:21;;;;;;;0.80;0.80;;;;;;;;;;4966751;28;20130;-78
2022/08/14 03:27:51;;;;;;;0.60;0.60;;;;;;;;;;4964278;28;20047;-78
2022/08/14 03:30:26;;;;;;;0.57;0.57;;;;;;;;;;4965372;28;20057;-77
2022/08/14 03:33:08;;;;;;;0.80;0.60;;;;;;;;;;4968082;28;20058;-78
2022/08/14 03:35:38;;;;;;;0.75;0.60;;;;;;;;;;4955629;28;20055;-80
2022/08/14 03:38:27;;;;;;;0.73;0.57;;;;;;;;;;4944673;28;20039;-78
2022/08/14 03:41:16;;;;;;;1.17;1.05;;;;;;;;;;4957352;28;20081;-79
2022/08/14 03:43:47;;;;;;;0.93;0.60;;;;;;;;;;4953188;28;20472;-78
2022/08/14 03:46:30;;;;;;;0.32;0.32;;;;;;;;;;4965050;28;20117;-78
2022/08/14 03:49:22;;;;;;;1.45;0.93;;;;;;;;;;4973151;28;20069;-81
2022/08/14 03:51:55;;;;;;;0.38;0.38;;;;;;;;;;4970415;28;20090;-79
2022/08/14 03:54:25;;;;;;;0.75;0.60;;;;;;;;;;4969559;28;21209;-78
2022/08/14 03:56:53;;;;;;;1.10;0.77;;;;;;;;;;4971064;28;20427;-78
2022/08/14 03:59:23;;;;;;;0.73;0.55;;;;;;;;;;4971342;28;20050;-77
2022/08/14 04:01:55;;;;;;;0.50;0.50;;;;;;;;;;4971903;28;20054;-78
2022/08/14 04:04:29;;;;;;;2.20;1.17;;;;;;;;;;4970399;28;20054;-77
2022/08/14 04:06:59;;;;;;;0.40;0.40;;;;;;;;;;4964513;28;20098;-81
2022/08/14 04:09:28;;;;;;;0.30;0.30;;;;;;;;;;4971769;28;20078;-78
2022/08/14 04:11:56;;;;;;;0.52;0.52;;;;;;;;;;4971870;28;20050;-78
2022/08/14 04:14:28;;;;;;;0.40;0.40;;;;;;;;;;4970712;28;20043;-77
2022/08/14 04:16:57;;;;;;;1.48;0.90;;;;;;;;;;4969451;28;20491;-78
2022/08/14 04:19:25;;;;;;;0.68;0.45;;;;;;;;;;4970804;28;20061;-78
2022/08/14 04:22:00;;;;;;;1.05;0.60;;;;;;;;;;4969950;28;20074;-79
2022/08/14 04:24:31;;;;;;;0.25;0.25;;;;;;;;;;4961692;28;20042;-78
2022/08/14 04:27:07;;;;;;;0.35;0.30;;;;;;;;;;4965290;28;20550;-80
2022/08/14 04:29:38;;;;;;;0.55;0.43;;;;;;;;;;4966551;28;20051;-78
2022/08/14 04:32:07;;;;;;;0.50;0.50;;;;;;;;;;4965056;28;20061;-78
2022/08/14 04:34:56;;;;;;;0.40;0.40;;;;;;;;;;4964201;28;20073;-78
2022/08/14 04:45:49;;;;;;;0.80;0.55;;;;;;;;;;4963872;28;20065;-80
2022/08/14 04:48:19;;;;;;;0.80;0.47;;;;;;;;;;4967092;28;20094;-79
2022/08/14 04:51:08;;;;;;;0.57;0.40;;;;;;;;;;4964880;28;20057;-78
2022/08/14 04:53:42;;;;;;;2.45;0.43;;;;;;;;;;4959549;28;20130;-78
2022/08/14 04:56:12;;;;;;;0.20;0.20;;;;;;;;;;4967331;28;20062;-78
2022/08/14 04:59:03;;;;;;;1.60;0.95;;;;;;;;;;4966690;28;20513;-81
2022/08/14 05:01:38;;;;;;;0.82;0.50;;;;;;;;;;4966213;28;20517;-79
2022/08/14 05:04:08;;;;;;;0.20;0.20;;;;;;;;;;4965724;28;20051;-79
2022/08/14 05:06:43;;;;;;;0.20;0.20;;;;;;;;;;4964273;28;20272;-79
2022/08/14 05:09:12;;;;;;;0.55;0.45;;;;;;;;;;4965685;28;20110;-79
2022/08/14 05:11:41;;;;;;;0.63;0.38;;;;;;;;;;4966473;28;20546;-80
2022/08/14 05:14:11;;;;;;;0.68;0.68;;;;;;;;;;4966715;28;20059;-79
2022/08/14 05:17:01;;;;;;;0.45;0.43;;;;;;;;;;4965437;28;20359;-80
2022/08/14 05:19:30;;;;;;;0.70;0.57;;;;;;;;;;4964273;28;20050;-80
2022/08/14 05:22:00;;;;;;;0.70;0.70;;;;;;;;;;4961998;28;20062;-79
2022/08/14 05:24:47;;;;;;;2.05;0.70;;;;;;;;;;4964375;28;20043;-80
2022/08/14 05:27:19;;;;;;;0.20;0.20;;;;;;;;;;4941895;29;20055;-80
2022/08/14 05:29:50;;;;;;;1.02;0.90;;;;;;;;;;4948148;29;20078;-79
2022/08/14 05:32:20;;;;;;;1.10;1.00;;;;;;;;;;4942936;28;20051;-81
2022/08/14 05:34:50;;;;;;;1.85;0.82;;;;;;;;;;4942432;28;20056;-79
2022/08/14 05:37:19;;;;;;;0.82;0.40;;;;;;;;;;4961639;28;20051;-79
2022/08/14 05:39:48;;;;;;;1.40;1.05;;;;;;;;;;4958568;28;20054;-79
2022/08/14 05:42:16;;;;;;;0.30;0.30;;;;;;;;;;4964803;28;20094;-79
2022/08/14 05:44:54;;;;;;;0.80;0.60;;;;;;;;;;4964842;28;20058;-80
2022/08/14 05:47:25;;;;;;;0.85;0.40;;;;;;;;;;4952897;28;20066;-79
2022/08/14 05:49:57;;;;;;;0.30;0.30;;;;;;;;;;4949382;28;20047;-80
2022/08/14 05:52:26;;;;;;;0.38;0.38;;;;;;;;;;4944162;28;20051;-80
2022/08/14 05:55:08;;;;;;;0.60;0.43;;;;;;;;;;4942341;28;20051;-79
2022/08/14 05:57:46;;;;;;;1.20;0.73;;;;;;;;;;4949389;28;20149;-79
2022/08/14 06:00:15;;;;;;;0.73;0.43;;;;;;;;;;4945568;28;20087;-81
2022/08/14 06:02:57;;;;;;;1.70;0.50;;;;;;;;;;4936377;28;20051;-79
2022/08/14 06:05:28;;;;;;;1.10;0.50;;;;;;;;;;4943916;28;20638;-81
2022/08/14 06:07:57;;;;;;;0.43;0.43;;;;;;;;;;4944983;28;20451;-79
2022/08/14 06:10:25;;;;;;;0.57;0.57;;;;;;;;;;4945265;28;20123;-79
2022/08/14 06:12:55;;;;;;;0.17;0.17;;;;;;;;;;4939567;28;20058;-80
2022/08/14 06:15:25;;;;;;;0.30;0.30;;;;;;;;;;4936001;28;20400;-80
2022/08/14 06:18:00;;;;;;;0.30;0.30;;;;;;;;;;4937588;28;20083;-79
2022/08/14 06:20:29;;;;;;;0.60;0.40;;;;;;;;;;4939448;28;20491;-80
2022/08/14 06:22:58;;;;;;;0.68;0.47;;;;;;;;;;4943500;28;20075;-80
2022/08/14 06:25:26;;;;;;;0.45;0.40;;;;;;;;;;4941404;28;20046;-81
2022/08/14 06:27:55;;;;;;;1.10;0.45;;;;;;;;;;4960252;28;20057;-82
2022/08/14 06:30:28;;;;;;;0.52;0.52;;;;;;;;;;4963802;28;20053;-82
2022/08/14 06:33:16;;;;;;;0.30;0.30;;;;;;;;;;4963464;28;20318;-83
2022/08/14 06:35:45;;;;;;;0.28;0.20;;;;;;;;;;4956556;28;20129;-79
2022/08/14 06:38:15;;;;;;;0.52;0.43;;;;;;;;;;4944986;28;20051;-79
2022/08/14 06:40:45;;;;;;;0.50;0.50;;;;;;;;;;4944005;28;20055;-80
2022/08/14 06:43:14;;;;;;;0.95;0.65;;;;;;;;;;4945150;28;20087;-82
2022/08/14 06:45:45;;;;;;;0.70;0.40;;;;;;;;;;4953544;28;20061;-80
2022/08/14 06:48:23;;;;;;;0.52;0.52;;;;;;;;;;4965562;28;20054;-78
2022/08/14 06:50:52;;;;;;;1.45;0.50;;;;;;;;;;4963773;28;20051;-78
2022/08/14 06:53:21;;;;;;;0.55;0.28;;;;;;;;;;4957249;28;20553;-80
2022/08/14 06:55:56;;;;;;;0.30;0.30;;;;;;;;;;4955596;28;20499;-78
2022/08/14 06:58:30;;;;;;;0.20;0.20;;;;;;;;;;4936472;28;20114;-81
2022/08/14 07:06:52;;;;;;;0.35;0.30;;;;;;;;;;4945289;28;20046;-80
2022/08/14 07:09:25;;;;;;;0.25;0.25;;;;;;;;;;4949483;28;20051;-81
2022/08/14 07:11:55;;;;;;;0.30;0.30;;;;;;;;;;4945980;28;20086;-81
2022/08/14 07:14:25;;;;;;;0.43;0.22;;;;;;;;;;4940729;28;20145;-86
2022/08/14 07:16:53;;;;;;;0.20;0.20;;;;;;;;;;4956577;28;20062;-84
2022/08/14 07:19:23;;;;;;;0.75;0.38;;;;;;;;;;4962685;28;20570;-81
2022/08/14 07:21:52;;;;;;;0.45;0.30;;;;;;;;;;4968212;28;20050;-82
2022/08/14 07:24:20;;;;;;;0.47;0.47;;;;;;;;;;4959850;28;20138;-82
2022/08/14 07:26:58;;;;;;;0.30;0.30;;;;;;;;;;4946395;28;20125;-85
2022/08/14 07:29:27;;;;;;;1.38;0.32;;;;;;;;;;4943105;28;20119;-81
2022/08/14 07:31:56;;;;;;;0.32;0.30;;;;;;;;;;4947358;28;20134;-83
2022/08/14 07:34:26;;;;;;;0.50;0.30;;;;;;;;;;4940169;28;20062;-83
2022/08/14 07:37:08;;;;;;;0.22;0.22;;;;;;;;;;4948622;28;20065;-83
2022/08/14 07:39:37;;;;;;;1.13;0.43;;;;;;;;;;4950249;28;20055;-83
2022/08/14 07:42:10;;;;;;;0.40;0.40;;;;;;;;;;4950419;28;20047;-85
2022/08/14 07:44:40;;;;;;;0.30;0.25;;;;;;;;;;4950168;28;20487;-83
2022/08/14 07:47:16;;;;;;;0.40;0.35;;;;;;;;;;4934024;28;20079;-82
2022/08/14 07:49:52;;;;;;;0.40;0.40;;;;;;;;;;4956022;28;20086;-82
2022/08/14 07:52:23;;;;;;;0.35;0.35;;;;;;;;;;4934897;28;20111;-83
2022/08/14 07:54:59;;;;;;;0.68;0.50;;;;;;;;;;4938019;28;20523;-82
2022/08/14 07:57:27;;;;;;;1.33;0.40;;;;;;;;;;4965165;28;20086;-82
2022/08/14 07:59:56;;;;;;;1.02;0.30;;;;;;;;;;4970389;28;20051;-82
2022/08/14 08:02:28;;;;;;;0.25;0.25;;;;;;;;;;4969921;28;20086;-82
2022/08/14 08:05:01;;;;;;;0.30;0.30;;;;;;;;;;4969186;28;20047;-81
2022/08/14 08:07:30;;;;;;;0.95;0.70;;;;;;;;;;4969963;28;20112;-82
2022/08/14 08:09:59;;;;;;;0.68;0.60;;;;;;;;;;4970331;28;20057;-82
2022/08/14 08:12:30;;;;;;;1.58;0.80;;;;;;;;;;4969513;28;20057;-82
2022/08/14 08:15:00;;;;;;;0.73;0.47;;;;;;;;;;4969426;28;20054;-82
2022/08/14 08:17:36;;;;;;;0.75;0.60;;;;;;;;;;4970347;28;20051;-82
2022/08/14 08:20:15;;;;;;;0.40;0.38;;;;;;;;;;4970154;28;20058;-82
2022/08/14 08:22:47;;;;;;;7.28;1.00;;;;;;;;;;4969776;28;20047;-83
2022/08/14 08:25:23;;;;;;;0.55;0.55;;;;;;;;;;4965430;28;20479;-82
2022/08/14 08:27:55;;;;;;;0.45;0.40;;;;;;;;;;4954423;28;20075;-83
2022/08/14 08:30:25;;;;;;;0.63;0.60;;;;;;;;;;4954217;28;20078;-82
2022/08/14 08:32:55;;;;;;;2.83;0.93;;;;;;;;;;4954577;28;20054;-82
2022/08/14 08:35:26;;;;;;;0.82;0.47;;;;;;;;;;4953160;28;20130;-83
2022/08/14 08:38:16;;;;;;;0.95;0.47;;;;;;;;;;4953583;28;20430;-82
2022/08/14 08:41:09;;;;;;;0.32;0.32;;;;;;;;;;4954436;28;20047;-82
2022/08/14 08:43:39;;;;;;;0.63;0.50;;;;;;;;;;4953922;28;20082;-82
2022/08/14 08:46:15;;;;;;;1.40;0.50;;;;;;;;;;4953281;28;20130;-82
2022/08/14 08:48:52;;;;;;;0.63;0.43;;;;;;;;;;4944158;28;20600;-82
2022/08/14 08:51:26;;;;;;;1.02;0.60;;;;;;;;;;4953310;28;20067;-82
2022/08/14 08:54:03;;;;;;;0.95;0.63;;;;;;;;;;4953978;28;20079;-82
2022/08/14 08:56:36;;;;;;;1.83;0.60;;;;;;;;;;4952249;28;20061;-83
2022/08/14 08:59:17;;;;;;;0.75;0.50;;;;;;;;;;4953667;28;20411;-82
2022/08/14 09:01:50;;;;;;;0.80;0.45;;;;;;;;;;4943408;28;20043;-82
2022/08/14 09:04:24;;;;;;;0.80;0.65;;;;;;;;;;4953711;28;20456;-82
2022/08/14 09:06:55;;;;;;;1.38;0.93;;;;;;;;;;4953036;28;20055;-83
2022/08/14 09:09:50;;;;;;;0.60;0.60;;;;;;;;;;4951906;28;20043;-82
2022/08/14 09:12:27;;;;;;;0.60;0.50;;;;;;;;;;4952967;28;20126;-84
2022/08/14 09:14:59;;;;;;;3.63;0.88;;;;;;;;;;4952737;28;20055;-82
2022/08/14 09:17:28;;;;;;;0.50;0.50;;;;;;;;;;4953154;28;20129;-82
2022/08/14 09:19:57;;;;;;;1.40;0.80;;;;;;;;;;4953447;28;20159;-83
2022/08/14 09:22:33;;;;;;;1.00;0.73;;;;;;;;;;4953320;28;20411;-82
2022/08/14 09:25:12;;;;;;;3.92;1.00;;;;;;;;;;4951925;28;20134;-82
2022/08/14 09:27:42;;;;;;;0.60;0.60;;;;;;;;;;4953586;28;20311;-83
2022/08/14 09:30:11;;;;;;;0.73;0.60;;;;;;;;;;4952938;28;20640;-85
2022/08/14 09:33:17;;;;;;;1.38;0.77;;;;;;;;;;4953190;28;20050;-82
2022/08/14 09:35:59;;;;;;;1.15;0.63;;;;;;;;;;4951631;28;20043;-82
2022/08/14 09:38:38;;;;;;;0.80;0.70;;;;;;;;;;4953061;28;20191;-82
2022/08/14 09:41:14;;;;;;;1.10;0.85;;;;;;;;;;4953782;28;20050;-84
2022/08/14 09:43:47;;;;;;;1.38;0.80;;;;;;;;;;4951146;28;20051;-83
2022/08/14 09:46:18;;;;;;;1.67;0.80;;;;;;;;;;4951980;28;20055;-82
2022/08/14 09:48:58;;;;;;;1.20;0.85;;;;;;;;;;4946354;28;20479;-82
2022/08/14 09:51:26;;;;;;;1.10;0.80;;;;;;;;;;4952738;28;20524;-82
2022/08/14 09:54:12;;;;;;;;;;;;;;;;;;4952741;28;20795;-83
2022/08/14 09:56:51;;;;;;;1.05;0.68;;;;;;;;;;4951720;28;19922;-83
2022/08/14 09:59:28;;;;;;;0.80;0.80;;;;;;;;;;4952405;28;20051;-83
2022/08/14 10:02:05;;;;;;;1.63;0.80;;;;;;;;;;4952993;28;20054;-82
2022/08/14 10:04:36;;;;;;;1.02;0.63;;;;;;;;;;4952139;28;20066;-83
2022/08/14 10:07:13;;;;;;;1.30;0.82;;;;;;;;;;4951858;28;20055;-83
2022/08/14 10:09:48;;;;;;;2.45;1.20;;;;;;;;;;4952425;28;20138;-84
2022/08/14 10:12:41;;;;;;;1.10;1.00;;;;;;;;;;4953016;28;20130;-83
2022/08/14 10:15:16;;;;;;;1.15;0.80;;;;;;;;;;4951688;28;20142;-86
2022/08/14 10:17:45;;;;;;;1.27;0.85;;;;;;;;;;4950263;28;20130;-83
2022/08/14 10:20:14;;;;;;;1.55;0.95;;;;;;;;;;4952433;28;20078;-83
2022/08/14 10:23:09;;;;;;;1.75;0.90;;;;;;;;;;4943329;28;20138;-83
2022/08/14 10:25:49;;;;;;;1.48;0.80;;;;;;;;;;4951078;28;20047;-83
2022/08/14 10:28:20;;;;;;;1.17;0.85;;;;;;;;;;4952195;28;20055;-83
2022/08/14 10:31:16;;;;;;;0.70;0.50;;;;;;;;;;4943138;28;20062;-84
2022/08/14 10:33:59;;;;;;;1.73;1.33;;;;;;;;;;4951536;28;20508;-84
2022/08/14 10:36:30;;;;;;;0.82;0.73;;;;;;;;;;4951339;28;20063;-83
2022/08/14 10:39:05;;;;;;;0.90;0.73;;;;;;;;;;4942559;28;20130;-83
2022/08/14 10:41:41;;;;;;;1.58;1.00;;;;;;;;;;4952018;28;20549;-83
2022/08/14 10:44:25;;;;;;;1.00;0.90;;;;;;;;;;4952041;28;20043;-83
2022/08/14 10:47:08;;;;;;;1.48;1.10;;;;;;;;;;4949004;28;20083;-83
2022/08/14 10:49:57;;;;;;;1.10;0.80;;;;;;;;;;4951196;28;20061;-83
2022/08/14 10:52:28;;;;;;;1.35;0.82;;;;;;;;;;4951700;28;20129;-84
2022/08/14 10:55:07;;;;;;;1.67;1.20;;;;;;;;;;4948892;28;20051;-83
2022/08/14 10:57:35;;;;;;;1.48;1.00;;;;;;;;;;4951595;28;20043;-83
2022/08/14 11:00:14;;;;;;;0.93;0.77;;;;;;;;;;4951532;28;20051;-83
2022/08/14 11:03:00;;;;;;;1.55;0.90;;;;;;;;;;4949095;29;20043;-84
2022/08/14 11:05:40;;;;;;;1.00;0.85;;;;;;;;;;4950872;28;20130;-83
2022/08/14 11:08:10;;;;;;;1.88;1.05;;;;;;;;;;4951469;28;20047;-83
2022/08/14 11:10:42;;;;;;;1.10;1.00;;;;;;;;;;4951382;28;20054;-85
2022/08/14 11:13:11;;;;;;;1.00;0.90;;;;;;;;;;4941877;28;20063;-83
2022/08/14 11:15:45;;;;;;;0.68;0.65;;;;;;;;;;4950420;28;20055;-83
2022/08/14 11:18:13;;;;;;;1.45;0.90;;;;;;;;;;4951787;28;20522;-84
2022/08/14 11:20:58;;;;;;;1.13;1.02;;;;;;;;;;4951341;28;20051;-83
2022/08/14 11:23:29;;;;;;;1.50;0.88;;;;;;;;;;4950736;28;20162;-83
2022/08/14 11:26:11;;;;;;;1.55;1.10;;;;;;;;;;4949713;28;20404;-84
2022/08/14 11:28:42;;;;;;;1.20;0.90;;;;;;;;;;4951465;28;20853;-83
2022/08/14 11:31:19;;;;;;;4.20;1.33;;;;;;;;;;4951036;28;20070;-84
2022/08/14 11:33:53;;;;;;;1.83;1.08;;;;;;;;;;4950857;28;20051;-84
2022/08/14 11:36:27;;;;;;;0.95;0.70;;;;;;;;;;4949142;28;20055;-83
2022/08/14 11:39:19;;;;;;;1.58;1.08;;;;;;;;;;4940369;28;20055;-83
2022/08/14 11:42:03;;;;;;;1.63;0.98;;;;;;;;;;4947450;28;20468;-87
2022/08/14 11:44:52;;;;;;;2.42;1.05;;;;;;;;;;4944031;28;20051;-83
2022/08/14 11:47:25;;;;;;;1.33;1.17;;;;;;;;;;4947819;28;20048;-82
2022/08/14 11:50:12;;;;;;;4.32;1.00;;;;;;;;;;4953469;28;20078;-84
2022/08/14 11:52:40;;;;;;;1.42;1.02;;;;;;;;;;4950676;28;20459;-83
2022/08/14 11:55:12;;;;;;;2.17;1.35;;;;;;;;;;4953387;28;20642;-85
2022/08/14 11:57:41;;;;;;;1.48;0.93;;;;;;;;;;4944620;28;20058;-85
2022/08/14 12:00:26;;;;;;;1.55;0.90;;;;;;;;;;4950552;28;20059;-83
2022/08/14 12:03:02;;;;;;;0.95;0.85;;;;;;;;;;4953177;28;20048;-84
2022/08/14 12:05:33;;;;;;;1.15;1.00;;;;;;;;;;4950020;28;20264;-83
2022/08/14 12:08:06;;;;;;;1.05;0.93;;;;;;;;;;4953134;28;20558;-83
2022/08/14 12:10:42;;;;;;;1.60;1.10;;;;;;;;;;4954282;28;20499;-83
2022/08/14 12:13:11;;;;;;;1.92;1.00;;;;;;;;;;4954327;28;20062;-83
2022/08/14 12:15:40;;;;;;;5.47;1.05;;;;;;;;;;4953389;28;20067;-84
2022/08/14 12:18:14;;;;;;;1.45;1.00;;;;;;;;;;4954671;28;20047;-86
2022/08/14 12:20:47;;;;;;;1.77;1.13;;;;;;;;;;4952279;28;20055;-83
2022/08/14 12:23:22;;;;;;;1.58;1.30;;;;;;;;;;4954029;28;20051;-84
2022/08/14 12:26:03;;;;;;;1.15;0.90;;;;;;;;;;4960907;28;20048;-84
2022/08/14 12:29:06;;;;;;;0.85;0.80;;;;;;;;;;4954106;28;20047;-84
2022/08/14 12:31:35;;;;;;;1.83;1.30;;;;;;;;;;4958400;28;20130;-84
2022/08/14 12:34:16;;;;;;;1.77;0.63;;;;;;;;;;4949420;28;20063;-83
2022/08/14 12:36:47;;;;;;;1.52;0.88;;;;;;;;;;4950052;28;20051;-83
2022/08/14 12:39:19;;;;;;;2.28;1.00;;;;;;;;;;4951449;28;20067;-83
2022/08/14 12:41:51;;;;;;;1.58;1.00;;;;;;;;;;4947583;28;20052;-84
2022/08/14 12:44:29;;;;;;;1.35;1.17;;;;;;;;;;4949596;28;20054;-84
2022/08/14 12:47:02;;;;;;;1.40;1.00;;;;;;;;;;4948445;28;20131;-84
2022/08/14 12:49:34;;;;;;;0.75;0.75;;;;;;;;;;4947592;28;20060;-83
2022/08/14 12:52:06;;;;;;;1.92;1.30;;;;;;;;;;4941357;28;20531;-84
2022/08/14 12:54:44;;;;;;;1.70;1.00;;;;;;;;;;4947371;28;20051;-84
2022/08/14 12:57:36;;;;;;;2.53;1.60;;;;;;;;;;4922234;28;20122;-85
2022/08/14 13:00:06;;;;;;;2.00;1.20;;;;;;;;;;4953111;28;20079;-83
2022/08/14 13:02:51;;;;;;;1.13;1.00;;;;;;;;;;4951199;28;20059;-83
2022/08/14 13:05:25;;;;;;;1.40;1.10;;;;;;;;;;4957075;28;20051;-85
2022/08/14 13:07:56;;;;;;;1.77;1.00;;;;;;;;;;4969551;28;20050;-83
2022/08/14 13:10:27;;;;;;;1.17;0.90;;;;;;;;;;4972144;28;20402;-84
2022/08/14 13:13:17;;;;;;;1.10;1.00;;;;;;;;;;4964148;28;20065;-83
2022/08/14 13:15:47;;;;;;;2.33;0.93;;;;;;;;;;4971588;28;20422;-85
2022/08/14 13:18:25;;;;;;;1.38;0.93;;;;;;;;;;4972867;28;20105;-85
2022/08/14 13:20:57;;;;;;;1.10;0.80;;;;;;;;;;4973052;28;20102;-83
2022/08/14 13:23:28;;;;;;;;;;;;;;;;;;4978484;28;20043;-84
2022/08/14 13:25:59;;;;;;;1.50;0.90;;;;;;;;;;4962738;28;19977;-83
2022/08/14 13:28:28;;;;;;;1.08;0.82;;;;;;;;;;4952430;28;20316;-82
2022/08/14 13:31:03;;;;;;;2.58;1.08;;;;;;;;;;4957572;28;20311;-83
2022/08/14 13:33:38;;;;;;;2.22;1.30;;;;;;;;;;4954024;28;20138;-84
2022/08/14 13:36:12;;;;;;;1.42;1.05;;;;;;;;;;4963057;28;20051;-83
2022/08/14 13:39:00;;;;;;;1.05;0.95;;;;;;;;;;4972005;28;20130;-84
2022/08/14 13:41:29;;;;;;;2.05;0.90;;;;;;;;;;4971790;28;20047;-84
2022/08/14 13:44:03;;;;;;;1.92;1.27;;;;;;;;;;4972166;28;20047;-83
2022/08/14 13:46:35;;;;;;;1.17;0.98;;;;;;;;;;4971051;28;20137;-85
2022/08/14 13:49:06;;;;;;;2.08;1.40;;;;;;;;;;4972026;28;20265;-83
2022/08/14 13:51:38;;;;;;;1.52;1.10;;;;;;;;;;4972438;28;20130;-83
2022/08/14 13:54:08;;;;;;;1.73;1.02;;;;;;;;;;4972230;28;20061;-83
2022/08/14 13:56:39;;;;;;;1.02;0.82;;;;;;;;;;4971444;28;20142;-84
2022/08/14 13:59:08;;;;;;;1.13;0.80;;;;;;;;;;4971566;28;20058;-84
2022/08/14 14:01:38;;;;;;;1.15;0.82;;;;;;;;;;4972374;28;20315;-83
2022/08/14 14:04:14;;;;;;;3.30;1.00;;;;;;;;;;4970658;28;20117;-84
2022/08/14 14:06:49;;;;;;;1.25;1.10;;;;;;;;;;4971035;28;20114;-84
2022/08/14 14:09:21;;;;;;;3.97;1.08;;;;;;;;;;4971384;28;20526;-84
2022/08/14 14:11:50;;;;;;;2.92;1.00;;;;;;;;;;4971485;28;20137;-83
2022/08/14 14:14:21;;;;;;;1.42;1.10;;;;;;;;;;4971417;28;20145;-83
2022/08/14 14:17:12;;;;;;;1.60;1.00;;;;;;;;;;4970582;28;20386;-83
2022/08/14 14:19:45;;;;;;;1.45;1.00;;;;;;;;;;4971753;28;20051;-84
2022/08/14 14:22:16;;;;;;;1.63;1.20;;;;;;;;;;4971221;28;20085;-85
2022/08/14 14:25:04;;;;;;;1.17;0.98;;;;;;;;;;4973598;28;20053;-84
2022/08/14 14:27:35;;;;;;;0.82;0.77;;;;;;;;;;4971125;28;20042;-84
2022/08/14 14:30:09;;;;;;;1.85;0.90;;;;;;;;;;4971363;28;20051;-85
2022/08/14 14:32:58;;;;;;;1.48;0.90;;;;;;;;;;4964318;28;20042;-83
2022/08/14 14:35:32;;;;;;;2.28;1.10;;;;;;;;;;4969369;28;20049;-83
2022/08/14 14:38:09;;;;;;;2.38;1.23;;;;;;;;;;4971330;28;20495;-84
2022/08/14 14:40:39;;;;;;;0.93;0.70;;;;;;;;;;4971143;28;20089;-83
2022/08/14 14:43:23;;;;;;;1.65;0.90;;;;;;;;;;4970632;28;20125;-83
2022/08/14 14:45:55;;;;;;;1.42;1.00;;;;;;;;;;4970861;28;20055;-83
2022/08/14 14:48:30;;;;;;;1.00;0.90;;;;;;;;;;4970735;28;20142;-83
2022/08/14 14:51:00;;;;;;;;;;;;;;;;;;4971487;28;20046;-84
2022/08/14 14:53:33;;;;;;;1.42;0.90;;;;;;;;;;4970054;28;20005;-84
2022/08/14 14:56:10;;;;;;;1.10;0.82;;;;;;;;;;4970632;28;20058;-83
2022/08/14 14:58:58;;;;;;;0.90;0.77;;;;;;;;;;4971028;28;20058;-84
2022/08/14 15:01:27;;;;;;;2.08;1.05;;;;;;;;;;4970342;28;20109;-83
2022/08/14 15:03:58;;;;;;;1.42;1.10;;;;;;;;;;4971085;28;20051;-83
2022/08/14 15:06:31;;;;;;;1.27;0.90;;;;;;;;;;4970362;28;20518;-83
2022/08/14 15:09:02;;;;;;;3.33;1.20;;;;;;;;;;4970286;28;20053;-84
2022/08/14 15:11:32;;;;;;;1.70;1.20;;;;;;;;;;4970407;28;20133;-83
2022/08/14 15:14:01;;;;;;;1.30;0.95;;;;;;;;;;4970074;28;20058;-83
2022/08/14 15:16:49;;;;;;;1.33;1.00;;;;;;;;;;4970203;28;20422;-83
2022/08/14 15:19:18;;;;;;;1.23;0.88;;;;;;;;;;4969834;28;20109;-83
2022/08/14 15:21:47;;;;;;;1.63;1.27;;;;;;;;;;4970310;28;20067;-84
2022/08/14 15:24:19;;;;;;;2.28;1.00;;;;;;;;;;4969386;28;20113;-84
2022/08/14 15:26:55;;;;;;;2.20;1.40;;;;;;;;;;4969986;28;20046;-83
2022/08/14 15:29:26;;;;;;;1.23;1.10;;;;;;;;;;4970604;28;20046;-83
2022/08/14 15:31:54;;;;;;;1.05;0.95;;;;;;;;;;4970259;28;20562;-83
2022/08/14 15:34:24;;;;;;;2.20;1.10;;;;;;;;;;4960501;28;20411;-84
2022/08/14 15:37:12;;;;;;;1.08;0.90;;;;;;;;;;4968190;28;20477;-84
2022/08/14 15:39:45;;;;;;;2.35;1.00;;;;;;;;;;4969875;28;20055;-83
2022/08/14 15:42:15;;;;;;;2.10;1.02;;;;;;;;;;4969829;28;20058;-83
2022/08/14 15:44:46;;;;;;;1.20;0.82;;;;;;;;;;4970132;28;20050;-85
2022/08/14 15:47:26;;;;;;;1.27;0.98;;;;;;;;;;4952720;28;20051;-84